PWSweather.com
Personal Weather Stations
Station Observations
J24K28P63
Vysocina, PocatkyCZ 39464

VysocinaPocatkyCZ 39464

Lat: 49.2594238, Lon: 15.2331769

Elevation: 2011

Station Type: Vantage Pro2+

http://meteo-jirkalina.com

High Low Average
Temperature 87.8°F31.0°C 54.2°F12.3°C 74.3°F23.5°C
Dew Point 57.5°F14.2°C 42.8°F6.0°C 53.8°F12.1°C
Winds 7.0 mph 11.3 kmh Calm Calm 2.0 mph ESE3.2 kmh ESE
Wind Gusts 13.0 mph20.9 kmh -- 4.0 mph6.4 kmh
Humidity 92% 32% 52%
Pressure 30.09 in1019.0 mb 29.94 in1013.9 mb -
Precipitation 0.00 in0.0 mm - -
Hour Temp Dew Point Humidity Winds Wind Gusts Pressure Precip Precip Rate Daily Precip Total
12:00 AM 57.8°F14.3°C 54.3°F12.4°C 88% Calm Calm -- 30.05 in1017.6 mb - 0.00 in0.0 mm 0.00 in0.0 mm
12:30 AM 58.3°F14.6°C 54.4°F12.4°C 87% Calm Calm -- 30.05 in1017.6 mb - 0.00 in0.0 mm 0.00 in0.0 mm
01:00 AM 58.6°F14.8°C 54.7°F12.6°C 87% Calm Calm -- 30.05 in1017.6 mb - 0.00 in0.0 mm 0.00 in0.0 mm
01:30 AM 58.9°F14.9°C 55.4°F13.0°C 88% Calm Calm -- 30.05 in1017.6 mb - 0.00 in0.0 mm 0.00 in0.0 mm
02:00 AM 58.4°F14.7°C 54.5°F12.5°C 87% Calm Calm -- 30.05 in1017.6 mb - 0.00 in0.0 mm 0.00 in0.0 mm
02:30 AM 58.0°F14.4°C 54.8°F12.7°C 89% Calm Calm -- 30.04 in1017.3 mb - 0.00 in0.0 mm 0.00 in0.0 mm
03:00 AM 57.5°F14.2°C 54.3°F12.4°C 89% Calm Calm -- 30.04 in1017.3 mb - 0.00 in0.0 mm 0.00 in0.0 mm
03:30 AM 56.9°F13.8°C 53.7°F12.1°C 89% Calm Calm -- 30.04 in1017.3 mb - 0.00 in0.0 mm 0.00 in0.0 mm
04:00 AM 55.9°F13.3°C 53.0°F11.7°C 90% Calm Calm -- 30.04 in1017.3 mb - 0.00 in0.0 mm 0.00 in0.0 mm
04:30 AM 55.0°F12.8°C 52.4°F11.3°C 91% Calm Calm -- 30.04 in1017.3 mb - 0.00 in0.0 mm 0.00 in0.0 mm
05:00 AM 54.2°F12.3°C 51.9°F11.1°C 92% Calm Calm -- 30.04 in1017.3 mb - 0.00 in0.0 mm 0.00 in0.0 mm
05:20 AM 59.5°F15.3°C 52.3°F11.3°C 77% Calm Calm -- 30.08 in1018.6 mb - 0.00 in0.0 mm 0.00 in0.0 mm
05:30 AM 59.3°F15.2°C 51.3°F10.7°C 75% Calm Calm -- 30.09 in1019.0 mb - 0.00 in0.0 mm 0.00 in0.0 mm
05:40 AM 59.1°F15.1°C 51.2°F10.7°C 75% Calm Calm -- 30.09 in1019.0 mb - 0.00 in0.0 mm 0.00 in0.0 mm
05:50 AM 59.7°F15.4°C 52.1°F11.2°C 76% Calm Calm -- 30.09 in1019.0 mb - 0.00 in0.0 mm 0.00 in0.0 mm
06:00 AM 60.8°F16.0°C 53.2°F11.8°C 76% Calm Calm -- 30.09 in1019.0 mb - 0.00 in0.0 mm 0.00 in0.0 mm
06:10 AM 61.9°F16.6°C 53.9°F12.2°C 75% Calm Calm -- 30.09 in1019.0 mb - 0.00 in0.0 mm 0.00 in0.0 mm
06:20 AM 62.7°F17.1°C 54.2°F12.3°C 74% Calm Calm 1.0 mph1.6 kmh 30.09 in1019.0 mb - 0.00 in0.0 mm 0.00 in0.0 mm
06:30 AM 63.2°F17.3°C 54.4°F12.4°C 73% 1.0 mph NW1.6 kmh NW 2.0 mph3.2 kmh 30.09 in1019.0 mb - 0.00 in0.0 mm 0.00 in0.0 mm
06:40 AM 63.9°F17.7°C 54.7°F12.6°C 72% Calm Calm -- 30.09 in1019.0 mb - 0.00 in0.0 mm 0.00 in0.0 mm
06:50 AM 64.4°F18.0°C 54.8°F12.7°C 71% Calm Calm -- 30.09 in1019.0 mb - 0.00 in0.0 mm 0.00 in0.0 mm
07:00 AM 65.2°F18.4°C 55.1°F12.8°C 70% Calm Calm -- 30.09 in1019.0 mb - 0.00 in0.0 mm 0.00 in0.0 mm
07:10 AM 65.5°F18.6°C 55.0°F12.8°C 69% Calm Calm 2.0 mph3.2 kmh 30.09 in1019.0 mb - 0.00 in0.0 mm 0.00 in0.0 mm
07:20 AM 65.8°F18.8°C 55.0°F12.8°C 68% Calm Calm -- 30.09 in1019.0 mb - 0.00 in0.0 mm 0.00 in0.0 mm
07:30 AM 66.6°F19.2°C 55.3°F12.9°C 67% 1.0 mph NW1.6 kmh NW 3.0 mph4.8 kmh 30.09 in1019.0 mb - 0.00 in0.0 mm 0.00 in0.0 mm
07:40 AM 66.7°F19.3°C 55.0°F12.8°C 66% 2.0 mph NW3.2 kmh NW 3.0 mph4.8 kmh 30.09 in1019.0 mb - 0.00 in0.0 mm 0.00 in0.0 mm
07:50 AM 67.2°F19.6°C 55.0°F12.8°C 65% 2.0 mph ENE3.2 kmh ENE 3.0 mph4.8 kmh 30.09 in1019.0 mb - 0.00 in0.0 mm 0.00 in0.0 mm
08:00 AM 67.6°F19.8°C 55.0°F12.8°C 64% 1.0 mph E1.6 kmh E 3.0 mph4.8 kmh 30.09 in1019.0 mb - 0.00 in0.0 mm 0.00 in0.0 mm
08:10 AM 68.4°F20.2°C 55.7°F13.2°C 64% 2.0 mph E3.2 kmh E 3.0 mph4.8 kmh 30.09 in1019.0 mb - 0.00 in0.0 mm 0.00 in0.0 mm
08:20 AM 70.5°F21.4°C 56.9°F13.8°C 62% Calm Calm 2.0 mph3.2 kmh 30.09 in1019.0 mb - 0.00 in0.0 mm 0.00 in0.0 mm
08:30 AM 71.4°F21.9°C 56.3°F13.5°C 59% 1.0 mph ENE1.6 kmh ENE 3.0 mph4.8 kmh 30.09 in1019.0 mb - 0.00 in0.0 mm 0.00 in0.0 mm
08:40 AM 72.1°F22.3°C 56.5°F13.6°C 58% 3.0 mph ENE4.8 kmh ENE 7.0 mph11.3 kmh 30.08 in1018.6 mb - 0.00 in0.0 mm 0.00 in0.0 mm
08:50 AM 72.0°F22.2°C 56.4°F13.6°C 58% 2.0 mph ENE3.2 kmh ENE 5.0 mph8.0 kmh 30.09 in1019.0 mb - 0.00 in0.0 mm 0.00 in0.0 mm
09:00 AM 72.5°F22.5°C 56.9°F13.8°C 58% 1.0 mph ENE1.6 kmh ENE 3.0 mph4.8 kmh 30.08 in1018.6 mb - 0.00 in0.0 mm 0.00 in0.0 mm
09:10 AM 73.8°F23.2°C 57.1°F13.9°C 56% 3.0 mph ENE4.8 kmh ENE 6.0 mph9.7 kmh 30.08 in1018.6 mb - 0.00 in0.0 mm 0.00 in0.0 mm
09:20 AM 75.8°F24.3°C 57.5°F14.2°C 53% 2.0 mph E3.2 kmh E 2.0 mph3.2 kmh 30.08 in1018.6 mb - 0.00 in0.0 mm 0.00 in0.0 mm
09:30 AM 75.7°F24.3°C 56.8°F13.8°C 52% 1.0 mph E1.6 kmh E 3.0 mph4.8 kmh 30.08 in1018.6 mb - 0.00 in0.0 mm 0.00 in0.0 mm
09:40 AM 78.6°F25.9°C 57.2°F14.0°C 48% 3.0 mph ESE4.8 kmh ESE 7.0 mph11.3 kmh 30.08 in1018.6 mb - 0.00 in0.0 mm 0.00 in0.0 mm
09:50 AM 78.4°F25.8°C 57.0°F13.9°C 48% 1.0 mph E1.6 kmh E 2.0 mph3.2 kmh 30.07 in1018.3 mb - 0.00 in0.0 mm 0.00 in0.0 mm
10:00 AM 78.9°F26.1°C 56.4°F13.6°C 46% 5.0 mph E8.0 kmh E 8.0 mph12.9 kmh 30.07 in1018.3 mb - 0.00 in0.0 mm 0.00 in0.0 mm
10:10 AM 79.2°F26.2°C 57.3°F14.1°C 47% 5.0 mph E8.0 kmh E 9.0 mph14.5 kmh 30.07 in1018.3 mb - 0.00 in0.0 mm 0.00 in0.0 mm
10:20 AM 80.1°F26.7°C 56.2°F13.4°C 44% 1.0 mph E1.6 kmh E 2.0 mph3.2 kmh 30.07 in1018.3 mb - 0.00 in0.0 mm 0.00 in0.0 mm
10:30 AM 80.5°F26.9°C 56.6°F13.7°C 44% 3.0 mph E4.8 kmh E 3.0 mph4.8 kmh 30.07 in1018.3 mb - 0.00 in0.0 mm 0.00 in0.0 mm
10:40 AM 81.1°F27.3°C 56.5°F13.6°C 43% 2.0 mph E3.2 kmh E 6.0 mph9.7 kmh 30.06 in1017.9 mb - 0.00 in0.0 mm 0.00 in0.0 mm
10:50 AM 81.1°F27.3°C 56.5°F13.6°C 43% 3.0 mph E4.8 kmh E 7.0 mph11.3 kmh 30.06 in1017.9 mb - 0.00 in0.0 mm 0.00 in0.0 mm
11:00 AM 82.8°F28.2°C 56.0°F13.3°C 40% Calm Calm 2.0 mph3.2 kmh 30.05 in1017.6 mb - 0.00 in0.0 mm 0.00 in0.0 mm
11:10 AM 84.5°F29.2°C 55.4°F13.0°C 37% 1.0 mph ESE1.6 kmh ESE 3.0 mph4.8 kmh 30.05 in1017.6 mb - 0.00 in0.0 mm 0.00 in0.0 mm
11:20 AM 84.0°F28.9°C 56.4°F13.6°C 39% 5.0 mph SE8.0 kmh SE 9.0 mph14.5 kmh 30.04 in1017.3 mb - 0.00 in0.0 mm 0.00 in0.0 mm
11:30 AM 85.0°F29.4°C 55.8°F13.2°C 37% 7.0 mph SSE11.3 kmh SSE 9.0 mph14.5 kmh 30.04 in1017.3 mb - 0.00 in0.0 mm 0.00 in0.0 mm
11:40 AM 85.1°F29.5°C 55.1°F12.8°C 36% 7.0 mph NE11.3 kmh NE 9.0 mph14.5 kmh 30.04 in1017.3 mb - 0.00 in0.0 mm 0.00 in0.0 mm
11:50 AM 83.7°F28.7°C 54.7°F12.6°C 37% 3.0 mph ENE4.8 kmh ENE 6.0 mph9.7 kmh 30.04 in1017.3 mb - 0.00 in0.0 mm 0.00 in0.0 mm
12:00 PM 83.8°F28.8°C 54.7°F12.6°C 37% 5.0 mph E8.0 kmh E 9.0 mph14.5 kmh 30.04 in1017.3 mb - 0.00 in0.0 mm 0.00 in0.0 mm
12:10 PM 82.9°F28.3°C 53.9°F12.2°C 37% 2.0 mph NE3.2 kmh NE 3.0 mph4.8 kmh 30.03 in1016.9 mb - 0.00 in0.0 mm 0.00 in0.0 mm
12:20 PM 82.4°F28.0°C 55.0°F12.8°C 39% 2.0 mph E3.2 kmh E 7.0 mph11.3 kmh 30.03 in1016.9 mb - 0.00 in0.0 mm 0.00 in0.0 mm
12:30 PM 73.7°F23.2°C 42.8°F6.0°C 33% 1.7 mph NE2.7 kmh NE 3.0 mph4.8 kmh 30.01 in1016.3 mb - 0.00 in0.0 mm 0.00 in0.0 mm
12:40 PM 81.5°F27.5°C 54.8°F12.7°C 40% 2.0 mph E3.2 kmh E 3.0 mph4.8 kmh 30.02 in1016.6 mb - 0.00 in0.0 mm 0.00 in0.0 mm
12:50 PM 80.6°F27.0°C 54.0°F12.2°C 40% 7.0 mph NE11.3 kmh NE 13.0 mph20.9 kmh 30.02 in1016.6 mb - 0.00 in0.0 mm 0.00 in0.0 mm
01:00 PM 81.9°F27.7°C 54.5°F12.5°C 39% 2.0 mph E3.2 kmh E 6.0 mph9.7 kmh 30.02 in1016.6 mb - 0.00 in0.0 mm 0.00 in0.0 mm
01:10 PM 84.2°F29.0°C 55.1°F12.8°C 37% 2.0 mph SE3.2 kmh SE 7.0 mph11.3 kmh 30.02 in1016.6 mb - 0.00 in0.0 mm 0.00 in0.0 mm
01:20 PM 85.6°F29.8°C 54.0°F12.2°C 34% 3.0 mph ENE4.8 kmh ENE 8.0 mph12.9 kmh 30.01 in1016.3 mb - 0.00 in0.0 mm 0.00 in0.0 mm
01:30 PM 85.0°F29.4°C 54.2°F12.3°C 35% 2.0 mph SE3.2 kmh SE 3.0 mph4.8 kmh 30.01 in1016.3 mb - 0.00 in0.0 mm 0.00 in0.0 mm
01:40 PM 85.8°F29.9°C 54.2°F12.3°C 34% 3.0 mph E4.8 kmh E 6.0 mph9.7 kmh 30.01 in1016.3 mb - 0.00 in0.0 mm 0.00 in0.0 mm
01:50 PM 85.4°F29.7°C 54.7°F12.6°C 35% 2.0 mph SE3.2 kmh SE 10.0 mph16.1 kmh 30.00 in1015.9 mb - 0.00 in0.0 mm 0.00 in0.0 mm
02:00 PM 86.2°F30.1°C 54.6°F12.6°C 34% 5.0 mph SSW8.0 kmh SSW 6.0 mph9.7 kmh 30.00 in1015.9 mb - 0.00 in0.0 mm 0.00 in0.0 mm
02:10 PM 86.0°F30.0°C 54.3°F12.4°C 34% 5.0 mph NE8.0 kmh NE 6.0 mph9.7 kmh 29.99 in1015.6 mb - 0.00 in0.0 mm 0.00 in0.0 mm
02:20 PM 83.6°F28.7°C 53.8°F12.1°C 36% 6.0 mph SSE9.7 kmh SSE 8.0 mph12.9 kmh 29.99 in1015.6 mb - 0.00 in0.0 mm 0.00 in0.0 mm
02:30 PM 86.3°F30.2°C 54.6°F12.6°C 34% 5.0 mph ENE8.0 kmh ENE 9.0 mph14.5 kmh 29.99 in1015.6 mb - 0.00 in0.0 mm 0.00 in0.0 mm
02:40 PM 85.0°F29.4°C 53.5°F11.9°C 34% 5.0 mph E8.0 kmh E 7.0 mph11.3 kmh 29.99 in1015.6 mb - 0.00 in0.0 mm 0.00 in0.0 mm
02:50 PM 85.7°F29.8°C 54.1°F12.3°C 34% 3.0 mph SE4.8 kmh SE 7.0 mph11.3 kmh 29.98 in1015.2 mb - 0.00 in0.0 mm 0.00 in0.0 mm
03:00 PM 86.0°F30.0°C 53.6°F12.0°C 33% 3.0 mph S4.8 kmh S 6.0 mph9.7 kmh 29.98 in1015.2 mb - 0.00 in0.0 mm 0.00 in0.0 mm
03:10 PM 86.6°F30.3°C 54.0°F12.2°C 33% 2.0 mph S3.2 kmh S 5.0 mph8.0 kmh 29.98 in1015.2 mb - 0.00 in0.0 mm 0.00 in0.0 mm
03:20 PM 87.8°F31.0°C 54.3°F12.4°C 32% 1.0 mph SE1.6 kmh SE 6.0 mph9.7 kmh 29.98 in1015.2 mb - 0.00 in0.0 mm 0.00 in0.0 mm
03:30 PM 85.6°F29.8°C 54.0°F12.2°C 34% 2.0 mph SE3.2 kmh SE 7.0 mph11.3 kmh 29.97 in1014.9 mb - 0.00 in0.0 mm 0.00 in0.0 mm
03:40 PM 84.0°F28.9°C 53.4°F11.9°C 35% 2.0 mph E3.2 kmh E 6.0 mph9.7 kmh 29.97 in1014.9 mb - 0.00 in0.0 mm 0.00 in0.0 mm
03:50 PM 83.0°F28.3°C 53.3°F11.8°C 36% 2.0 mph ENE3.2 kmh ENE 3.0 mph4.8 kmh 29.97 in1014.9 mb - 0.00 in0.0 mm 0.00 in0.0 mm
04:00 PM 82.7°F28.2°C 53.7°F12.1°C 37% Calm Calm 1.0 mph1.6 kmh 29.96 in1014.6 mb - 0.00 in0.0 mm 0.00 in0.0 mm
04:10 PM 82.9°F28.3°C 53.2°F11.8°C 36% 1.0 mph ESE1.6 kmh ESE 6.0 mph9.7 kmh 29.96 in1014.6 mb - 0.00 in0.0 mm 0.00 in0.0 mm
04:20 PM 83.0°F28.3°C 53.3°F11.8°C 36% 1.0 mph SE1.6 kmh SE 3.0 mph4.8 kmh 29.96 in1014.6 mb - 0.00 in0.0 mm 0.00 in0.0 mm
04:30 PM 82.7°F28.2°C 53.0°F11.7°C 36% 1.0 mph SSE1.6 kmh SSE 3.0 mph4.8 kmh 29.96 in1014.6 mb - 0.00 in0.0 mm 0.00 in0.0 mm
04:40 PM 84.1°F28.9°C 53.5°F11.9°C 35% Calm Calm 1.0 mph1.6 kmh 29.96 in1014.6 mb - 0.00 in0.0 mm 0.00 in0.0 mm
04:50 PM 84.2°F29.0°C 53.5°F11.9°C 35% 1.0 mph ENE1.6 kmh ENE 3.0 mph4.8 kmh 29.96 in1014.6 mb - 0.00 in0.0 mm 0.00 in0.0 mm
05:00 PM 84.6°F29.2°C 53.9°F12.2°C 35% 3.0 mph ENE4.8 kmh ENE 6.0 mph9.7 kmh 29.96 in1014.6 mb - 0.00 in0.0 mm 0.00 in0.0 mm
05:10 PM 84.4°F29.1°C 53.8°F12.1°C 35% 1.0 mph E1.6 kmh E 6.0 mph9.7 kmh 29.95 in1014.2 mb - 0.00 in0.0 mm 0.00 in0.0 mm
05:20 PM 83.9°F28.8°C 54.1°F12.3°C 36% 3.0 mph NE4.8 kmh NE 6.0 mph9.7 kmh 29.95 in1014.2 mb - 0.00 in0.0 mm 0.00 in0.0 mm
05:30 PM 83.7°F28.7°C 53.9°F12.2°C 36% 2.0 mph E3.2 kmh E 6.0 mph9.7 kmh 29.95 in1014.2 mb - 0.00 in0.0 mm 0.00 in0.0 mm
05:40 PM 83.2°F28.4°C 53.4°F11.9°C 36% 2.0 mph ESE3.2 kmh ESE 3.0 mph4.8 kmh 29.95 in1014.2 mb - 0.00 in0.0 mm 0.00 in0.0 mm
05:50 PM 82.7°F28.2°C 53.0°F11.7°C 36% 2.0 mph E3.2 kmh E 3.0 mph4.8 kmh 29.95 in1014.2 mb - 0.00 in0.0 mm 0.00 in0.0 mm
06:00 PM 82.5°F28.1°C 53.6°F12.0°C 37% 2.0 mph E3.2 kmh E 3.0 mph4.8 kmh 29.94 in1013.9 mb - 0.00 in0.0 mm 0.00 in0.0 mm
06:10 PM 82.0°F27.8°C 53.2°F11.8°C 37% 2.0 mph ENE3.2 kmh ENE 5.0 mph8.0 kmh 29.95 in1014.2 mb - 0.00 in0.0 mm 0.00 in0.0 mm
06:20 PM 81.6°F27.6°C 53.5°F11.9°C 38% 6.0 mph E9.7 kmh E 8.0 mph12.9 kmh 29.95 in1014.2 mb - 0.00 in0.0 mm 0.00 in0.0 mm
06:30 PM 81.2°F27.3°C 53.1°F11.7°C 38% 5.0 mph E8.0 kmh E 7.0 mph11.3 kmh 29.95 in1014.2 mb - 0.00 in0.0 mm 0.00 in0.0 mm
06:40 PM 80.7°F27.1°C 52.7°F11.5°C 38% 5.0 mph E8.0 kmh E 7.0 mph11.3 kmh 29.95 in1014.2 mb - 0.00 in0.0 mm 0.00 in0.0 mm
06:50 PM 80.0°F26.7°C 52.9°F11.6°C 39% 3.0 mph E4.8 kmh E 3.0 mph4.8 kmh 29.95 in1014.2 mb - 0.00 in0.0 mm 0.00 in0.0 mm
07:00 PM 79.4°F26.3°C 53.0°F11.7°C 40% 2.0 mph E3.2 kmh E 3.0 mph4.8 kmh 29.95 in1014.2 mb - 0.00 in0.0 mm 0.00 in0.0 mm
07:10 PM 78.8°F26.0°C 53.1°F11.7°C 41% 1.0 mph E1.6 kmh E 3.0 mph4.8 kmh 29.95 in1014.2 mb - 0.00 in0.0 mm 0.00 in0.0 mm
07:30 PM 68.4°F20.2°C 45.6°F7.6°C 44% Calm Calm -- 29.94 in1013.9 mb - 0.00 in0.0 mm 0.00 in0.0 mm
08:00 PM 65.5°F18.6°C 47.9°F8.8°C 53% Calm Calm -- 29.95 in1014.2 mb - 0.00 in0.0 mm 0.00 in0.0 mm
08:30 PM 63.6°F17.6°C 47.6°F8.7°C 56% Calm Calm -- 29.95 in1014.2 mb - 0.00 in0.0 mm 0.00 in0.0 mm
09:00 PM 62.0°F16.7°C 48.0°F8.9°C 60% Calm Calm -- 29.95 in1014.2 mb - 0.00 in0.0 mm 0.00 in0.0 mm
09:30 PM 60.9°F16.1°C 46.9°F8.3°C 60% Calm Calm -- 29.95 in1014.2 mb - 0.00 in0.0 mm 0.00 in0.0 mm
10:00 PM 60.1°F15.6°C 46.6°F8.1°C 61% Calm Calm -- 29.95 in1014.2 mb - 0.00 in0.0 mm 0.00 in0.0 mm
10:30 PM 59.5°F15.3°C 47.7°F8.7°C 65% Calm Calm -- 29.95 in1014.2 mb - 0.00 in0.0 mm 0.00 in0.0 mm
11:00 PM 59.0°F15.0°C 48.8°F9.3°C 69% Calm Calm -- 29.95 in1014.2 mb - 0.00 in0.0 mm 0.00 in0.0 mm
11:30 PM 58.6°F14.8°C 50.0°F10.0°C 73% Calm Calm -- 29.95 in1014.2 mb - 0.00 in0.0 mm 0.00 in0.0 mm